Time;durP1;ratioP1;P1;durP2;ratioP2;P2;SDS_P1;SDS_P2;PMS_P1;PMS_P2;Temp;Humidity;BMP_temperature;BMP_pressure;BME280_temperature;BME280_humidity;BME280_pressure;Samples;Min_cycle;Max_cycle;Signal;HPM_P1;HPM_P2
2023/07/05 00:00:03;;;;;;;;;;;;;;;19.23;58.33;97868.41;7371296;19;19931;-73
2023/07/05 00:02:30;;;;;;;;;;;;;;;19.32;58.47;97868.09;7369556;19;20662;-73
2023/07/05 00:04:56;;;;;;;;;;;;;;;19.43;57.84;97872.69;7366186;19;19919;-73
2023/07/05 00:07:23;;;;;;;;;;;;;;;19.45;56.86;97858.00;7370884;19;19929;-72
2023/07/05 00:09:50;;;;;;;;;;;;;;;19.62;56.60;97860.91;7368761;19;19990;-73
2023/07/05 00:12:16;;;;;;;;;;;;;;;19.64;56.66;97856.16;7371904;19;19929;-73
2023/07/05 00:14:43;;;;;;;;;;;;;;;20.10;55.13;97848.50;7372162;19;19931;-73
2023/07/05 00:17:10;;;;;;;;;;;;;;;20.15;55.46;97848.66;7367691;19;19922;-73
2023/07/05 00:19:36;;;;;;;;;;;;;;;20.17;55.50;97844.69;7370069;19;19914;-73
2023/07/05 00:22:03;;;;;;;;;;;;;;;20.23;54.83;97842.94;7365784;19;19919;-73
2023/07/05 00:24:30;;;;;;;;;;;;;;;20.19;55.00;97839.06;7369839;19;19919;-73
2023/07/05 00:26:56;;;;;;;;;;;;;;;20.15;54.83;97837.91;7367921;19;19950;-72
2023/07/05 00:29:23;;;;;;;;;;;;;;;20.01;55.65;97842.66;7372243;19;19929;-72
2023/07/05 00:31:50;;;;;;;;;;;;;;;20.06;55.68;97833.91;7366945;19;19999;-73
2023/07/05 00:34:17;;;;;;;;;;;;;;;19.99;55.99;97831.31;7369293;19;19943;-73
2023/07/05 00:36:43;;;;;;;;;;;;;;;20.00;55.97;97840.19;7363641;19;19929;-73
2023/07/05 00:39:10;;;;;;;;;;;;;;;20.06;55.57;97839.25;7366060;19;19922;-73
2023/07/05 00:41:37;;;;;;;;;;;;;;;20.10;55.02;97830.53;7366574;19;20450;-73
2023/07/05 00:44:04;;;;;;;;;;;;;;;20.15;55.62;97827.97;7365019;19;20252;-73
2023/07/05 00:46:31;;;;;;;;;;;;;;;20.18;56.07;97824.00;7367472;19;20629;-73
2023/07/05 00:49:05;;;;;;;;;;;;;;;20.24;55.23;97824.94;7361602;19;19982;-73
2023/07/05 00:51:45;;;;;;;;;;;;;;;20.31;54.99;97831.84;7363478;19;19919;-73
2023/07/05 00:54:13;;;;;;;;;;;;;;;20.36;54.28;97826.59;7359501;19;19994;-73
2023/07/05 00:56:51;;;;;;;;;;;;;;;20.35;55.50;97826.81;7366245;19;19934;-72
2023/07/05 00:59:18;;;;;;;;;;;;;;;20.38;55.35;97819.13;7373345;19;19923;-72
2023/07/05 01:01:44;;;;;;;;;;;;;;;20.40;55.04;97813.50;7375670;19;19974;-73
2023/07/05 01:04:28;;;;;;;;;;;;;;;20.38;54.94;97799.53;7374166;19;19948;-73
2023/07/05 01:06:54;;;;;;;;;;;;;;;20.50;55.25;97800.31;7371411;19;19926;-73
2023/07/05 01:09:26;;;;;;;;;;;;;;;20.43;55.06;97791.56;7367747;19;20226;-73
2023/07/05 01:12:00;;;;;;;;;;;;;;;20.49;55.02;97790.63;7360279;19;19933;-73
2023/07/05 01:14:36;;;;;;;;;;;;;;;20.57;54.98;97797.56;7374508;19;20753;-72
2023/07/05 01:17:03;;;;;;;;;;;;;;;20.64;54.91;97800.13;7372223;19;19941;-72
2023/07/05 01:19:43;;;;;;;;;;;;;;;20.64;54.91;97798.25;7376172;19;19915;-72
2023/07/05 01:22:15;;;;;;;;;;;;;;;20.67;54.84;97797.78;7373225;19;19915;-72
2023/07/05 01:24:59;;;;;;;;;;;;;;;20.75;54.46;97791.25;7372084;19;19941;-72
2023/07/05 01:27:36;;;;;;;;;;;;;;;20.81;53.83;97793.78;7367877;19;19939;-72
2023/07/05 01:30:03;;;;;;;;;;;;;;;20.82;54.56;97802.69;7369409;19;19990;-73
2023/07/05 01:32:43;;;;;;;;;;;;;;;20.90;55.88;97802.31;7375505;19;19923;-72
2023/07/05 01:35:16;;;;;;;;;;;;;;;20.80;58.09;97818.22;7370388;19;19915;-72
2023/07/05 01:37:43;;;;;;;;;;;;;;;20.69;59.25;97805.59;7371829;19;19937;-73
2023/07/05 01:40:15;;;;;;;;;;;;;;;20.44;62.05;97798.56;7371103;19;19921;-72
2023/07/05 01:42:42;;;;;;;;;;;;;;;20.24;62.28;97798.09;7370656;19;19915;-73
2023/07/05 01:45:09;;;;;;;;;;;;;;;20.03;63.18;97796.78;7367261;19;20411;-73
2023/07/05 01:47:38;;;;;;;;;;;;;;;19.95;62.80;97801.41;7371902;19;20529;-73
2023/07/05 01:50:34;;;;;;;;;;;;;;;19.69;64.20;97797.25;7368016;19;19914;-73
2023/07/05 01:53:21;;;;;;;;;;;;;;;19.71;63.79;97800.53;7371981;19;19932;-73
2023/07/05 01:55:50;;;;;;;;;;;;;;;19.79;63.95;97782.47;7374000;19;19926;-72
2023/07/05 01:58:18;;;;;;;;;;;;;;;19.78;63.80;97772.81;7369354;19;20392;-73
2023/07/05 02:00:47;;;;;;;;;;;;;;;19.81;63.32;97793.81;7368913;19;19933;-72
2023/07/05 02:03:15;;;;;;;;;;;;;;;19.83;63.56;97794.41;7371859;19;19918;-73
2023/07/05 02:05:41;;;;;;;;;;;;;;;19.88;62.89;97799.88;7372735;19;19930;-73
2023/07/05 02:08:08;;;;;;;;;;;;;;;19.94;62.59;97804.34;7370384;19;19930;-73
2023/07/05 02:10:36;;;;;;;;;;;;;;;19.89;63.21;97809.59;7370204;19;19911;-73
2023/07/05 02:13:03;;;;;;;;;;;;;;;20.04;61.41;97809.16;7372051;19;19956;-72
2023/07/05 02:15:30;;;;;;;;;;;;;;;20.02;61.44;97806.69;7371198;19;19927;-73
2023/07/05 02:17:57;;;;;;;;;;;;;;;20.10;61.27;97813.59;7359427;19;19926;-73
2023/07/05 02:20:23;;;;;;;;;;;;;;;20.03;62.83;97851.28;7372197;19;19996;-72
2023/07/05 02:22:50;;;;;;;;;;;;;;;19.84;62.95;97858.59;7370954;19;19929;-72
2023/07/05 02:25:17;;;;;;;;;;;;;;;19.73;62.44;97862.03;7356553;19;19927;-72
2023/07/05 02:27:43;;;;;;;;;;;;;;;19.86;63.19;97867.22;7364494;19;19919;-72
2023/07/05 02:30:12;;;;;;;;;;;;;;;20.08;60.88;97870.22;7366334;19;20709;-72
2023/07/05 02:32:42;;;;;;;;;;;;;;;20.28;60.30;97869.13;7366116;19;19954;-72
2023/07/05 02:35:09;;;;;;;;;;;;;;;20.29;59.46;97881.47;7361212;19;19922;-71
2023/07/05 02:37:36;;;;;;;;;;;;;;;20.40;59.49;97886.06;7367376;19;19926;-72
2023/07/05 02:40:03;;;;;;;;;;;;;;;20.28;61.57;97886.03;7367254;19;19923;-72
2023/07/05 02:42:30;;;;;;;;;;;;;;;20.10;62.56;97892.28;7369765;19;20296;-72
2023/07/05 02:44:57;;;;;;;;;;;;;;;19.95;62.46;97881.16;7367587;19;19925;-73
2023/07/05 02:47:23;;;;;;;;;;;;;;;19.81;65.09;97877.03;7371501;19;19986;-73
2023/07/05 02:49:50;;;;;;;;;;;;;;;19.64;65.41;97880.31;7367087;19;19926;-70
2023/07/05 02:52:17;;;;;;;;;;;;;;;19.34;67.70;97879.44;7365364;19;20002;-72
2023/07/05 02:54:44;;;;;;;;;;;;;;;19.21;68.34;97880.38;7373469;19;19932;-72
2023/07/05 02:57:10;;;;;;;;;;;;;;;19.08;72.48;97887.53;7365054;19;19960;-73
2023/07/05 02:59:37;;;;;;;;;;;;;;;18.97;71.25;97876.72;7375692;19;19950;-72
2023/07/05 03:02:04;;;;;;;;;;;;;;;18.97;71.01;97876.72;7368299;19;19925;-71
2023/07/05 03:04:31;;;;;;;;;;;;;;;18.88;73.06;97878.88;7372862;19;19923;-71
2023/07/05 03:06:58;;;;;;;;;;;;;;;18.80;74.16;97884.50;7365773;19;19918;-71
2023/07/05 03:09:25;;;;;;;;;;;;;;;18.81;73.52;97875.44;7371772;19;19930;-70
2023/07/05 03:11:52;;;;;;;;;;;;;;;18.80;71.49;97860.38;7369744;19;19919;-72
2023/07/05 03:14:19;;;;;;;;;;;;;;;18.68;72.88;97854.91;7370374;19;19919;-71
2023/07/05 03:16:47;;;;;;;;;;;;;;;18.64;75.63;97853.69;7371732;19;19956;-72
2023/07/05 03:19:13;;;;;;;;;;;;;;;18.72;74.40;97861.47;7373030;19;19995;-70
2023/07/05 03:21:41;;;;;;;;;;;;;;;18.65;75.99;97861.53;7370394;19;19919;-72
2023/07/05 03:24:07;;;;;;;;;;;;;;;18.54;76.46;97862.25;7364219;19;19922;-71
2023/07/05 03:26:34;;;;;;;;;;;;;;;18.68;75.06;97864.81;7368413;19;20454;-71
2023/07/05 03:29:04;;;;;;;;;;;;;;;18.56;76.24;97867.38;7368832;19;19926;-71
2023/07/05 03:31:31;;;;;;;;;;;;;;;18.60;77.34;97866.72;7368020;19;20644;-71
2023/07/05 03:33:58;;;;;;;;;;;;;;;18.63;77.22;97862.78;7364369;19;19923;-71
2023/07/05 03:36:25;;;;;;;;;;;;;;;18.72;76.73;97876.72;7368982;19;19919;-71
2023/07/05 03:38:52;;;;;;;;;;;;;;;18.76;76.53;97876.09;7369666;19;20729;-71
2023/07/05 03:41:20;;;;;;;;;;;;;;;18.76;76.00;97873.41;7364183;19;19923;-71
2023/07/05 03:43:48;;;;;;;;;;;;;;;18.89;76.01;97874.34;7371465;19;20367;-72
2023/07/05 03:46:15;;;;;;;;;;;;;;;18.92;75.86;97873.88;7367769;19;19926;-72
2023/07/05 03:48:42;;;;;;;;;;;;;;;18.95;76.20;97878.81;7369018;19;19919;-72
2023/07/05 03:51:09;;;;;;;;;;;;;;;19.03;75.73;97886.56;7366586;19;19938;-71
2023/07/05 03:53:36;;;;;;;;;;;;;;;19.10;74.88;97889.19;7369680;19;19919;-71
2023/07/05 03:56:04;;;;;;;;;;;;;;;19.11;74.53;97882.75;7365985;19;19918;-71
2023/07/05 03:58:31;;;;;;;;;;;;;;;19.18;73.09;97883.53;7366687;19;19925;-71
2023/07/05 04:01:03;;;;;;;;;;;;;;;19.25;72.39;97882.41;7366510;19;19914;-71
2023/07/05 04:03:31;;;;;;;;;;;;;;;19.27;71.93;97880.31;7371039;19;19926;-72
2023/07/05 04:05:57;;;;;;;;;;;;;;;19.26;71.80;97878.66;7368062;19;19925;-72
2023/07/05 04:08:24;;;;;;;;;;;;;;;19.32;70.99;97878.81;7369572;19;19925;-72
2023/07/05 04:10:51;;;;;;;;;;;;;;;19.38;70.29;97877.91;7369201;19;20626;-72
2023/07/05 04:13:18;;;;;;;;;;;;;;;19.46;70.16;97875.78;7363585;19;19918;-71
2023/07/05 04:15:45;;;;;;;;;;;;;;;19.43;70.20;97878.91;7365681;19;20458;-72
2023/07/05 04:18:11;;;;;;;;;;;;;;;19.48;70.17;97883.56;7364528;19;19935;-72
2023/07/05 04:20:38;;;;;;;;;;;;;;;19.51;69.55;97883.16;7365669;19;20677;-71
2023/07/05 04:23:05;;;;;;;;;;;;;;;19.54;69.86;97885.38;7362378;19;19915;-71
2023/07/05 04:25:31;;;;;;;;;;;;;;;19.60;69.69;97889.03;7366469;19;19986;-72
2023/07/05 04:27:58;;;;;;;;;;;;;;;19.62;69.90;97884.25;7366152;19;19931;-72
2023/07/05 04:30:25;;;;;;;;;;;;;;;19.63;69.85;97883.19;7367178;19;19926;-72
2023/07/05 04:32:51;;;;;;;;;;;;;;;19.54;70.03;97874.66;7365521;19;19934;-73
2023/07/05 04:35:19;;;;;;;;;;;;;;;19.61;70.02;97879.91;7372285;19;20349;-72
2023/07/05 04:37:45;;;;;;;;;;;;;;;19.54;69.86;97869.28;7372663;19;20020;-72
2023/07/05 04:40:12;;;;;;;;;;;;;;;19.56;69.73;97869.03;7368085;19;19931;-72
2023/07/05 04:42:39;;;;;;;;;;;;;;;19.59;70.16;97866.75;7370743;19;19930;-71
2023/07/05 04:45:05;;;;;;;;;;;;;;;19.55;69.80;97860.19;7368084;19;19918;-72
2023/07/05 04:47:33;;;;;;;;;;;;;;;19.48;70.44;97862.97;7358351;19;19926;-72
2023/07/05 04:49:59;;;;;;;;;;;;;;;19.49;70.59;97863.78;7369831;19;20270;-72
2023/07/05 04:52:26;;;;;;;;;;;;;;;19.53;70.32;97867.63;7374932;19;20334;-72
2023/07/05 04:54:54;;;;;;;;;;;;;;;19.59;70.15;97865.91;7376077;19;19919;-72
2023/07/05 04:57:20;;;;;;;;;;;;;;;19.58;70.25;97865.09;7371273;19;20023;-71
2023/07/05 05:00:04;;;;;;;;;;;;;;;19.66;70.69;97866.63;7369699;19;20474;-72
2023/07/05 05:02:31;;;;;;;;;;;;;;;19.87;70.13;97858.13;7368282;19;19929;-71
2023/07/05 05:04:58;;;;;;;;;;;;;;;20.04;70.25;97857.50;7369351;19;20364;-72
2023/07/05 05:07:25;;;;;;;;;;;;;;;20.18;69.12;97851.69;7368903;19;19921;-72
2023/07/05 05:09:51;;;;;;;;;;;;;;;20.22;68.67;97837.78;7362816;19;19915;-71
2023/07/05 05:12:18;;;;;;;;;;;;;;;20.33;68.62;97842.38;7366727;19;19918;-72
2023/07/05 05:14:44;;;;;;;;;;;;;;;20.40;67.70;97832.31;7373774;19;19929;-71
2023/07/05 05:17:12;;;;;;;;;;;;;;;20.52;67.40;97833.16;7365472;19;19923;-71
2023/07/05 05:19:38;;;;;;;;;;;;;;;20.56;67.58;97828.16;7370532;19;20007;-72
2023/07/05 05:22:05;;;;;;;;;;;;;;;20.58;67.46;97826.88;7369300;19;19933;-70
2023/07/05 05:24:32;;;;;;;;;;;;;;;20.51;67.29;97830.69;7369004;19;19926;-71
2023/07/05 05:26:58;;;;;;;;;;;;;;;20.46;67.69;97842.16;7362991;19;19938;-72
2023/07/05 05:29:25;;;;;;;;;;;;;;;20.55;67.50;97840.78;7365801;19;19923;-71
2023/07/05 05:31:52;;;;;;;;;;;;;;;20.67;67.64;97850.72;7367907;19;19919;-72
2023/07/05 05:34:18;;;;;;;;;;;;;;;20.86;66.90;97841.50;7358800;19;21033;-71
2023/07/05 05:36:45;;;;;;;;;;;;;;;21.08;66.51;97846.25;7360442;19;19934;-71
2023/07/05 05:39:12;;;;;;;;;;;;;;;21.24;65.94;97850.91;7362869;19;19926;-72
2023/07/05 05:41:38;;;;;;;;;;;;;;;21.28;64.49;97852.06;7369234;19;19919;-71
2023/07/05 05:44:05;;;;;;;;;;;;;;;21.36;65.14;97842.81;7369399;19;19926;-71
2023/07/05 05:46:32;;;;;;;;;;;;;;;21.32;64.86;97847.84;7369267;19;19918;-71
2023/07/05 05:48:58;;;;;;;;;;;;;;;21.31;64.84;97856.16;7371974;19;19918;-72
2023/07/05 05:51:25;;;;;;;;;;;;;;;21.43;64.70;97855.13;7368433;19;20399;-71
2023/07/05 05:53:52;;;;;;;;;;;;;;;21.35;64.90;97855.44;7369132;19;19929;-71
2023/07/05 05:56:19;;;;;;;;;;;;;;;21.36;64.45;97857.09;7369315;19;19925;-71
2023/07/05 05:58:46;;;;;;;;;;;;;;;21.37;64.33;97861.41;7374345;19;20752;-71
2023/07/05 06:01:13;;;;;;;;;;;;;;;21.42;64.74;97861.53;7366587;19;19919;-71
2023/07/05 06:03:40;;;;;;;;;;;;;;;21.44;64.77;97848.66;7373501;19;19954;-71
2023/07/05 06:06:06;;;;;;;;;;;;;;;21.65;65.58;97857.16;7367828;19;19923;-70
2023/07/05 06:08:33;;;;;;;;;;;;;;;21.77;63.98;97857.91;7366424;19;22387;-71
2023/07/05 06:11:02;;;;;;;;;;;;;;;21.97;63.48;97854.78;7365799;19;20543;-70
2023/07/05 06:13:29;;;;;;;;;;;;;;;22.17;63.14;97853.50;7369537;19;19964;-71
2023/07/05 06:15:57;;;;;;;;;;;;;;;22.28;62.58;97858.88;7372922;19;19922;-71
2023/07/05 06:18:40;;;;;;;;;;;;;;;22.41;61.80;97864.97;7369832;19;19918;-70
2023/07/05 06:21:07;;;;;;;;;;;;;;;22.29;61.93;97873.16;7368223;19;19930;-70
2023/07/05 06:23:33;;;;;;;;;;;;;;;22.22;63.59;97869.78;7369933;19;19918;-71
2023/07/05 06:26:00;;;;;;;;;;;;;;;22.35;62.03;97874.84;7365098;19;19919;-71
2023/07/05 06:28:27;;;;;;;;;;;;;;;22.46;61.23;97881.22;7372426;19;19926;-71
2023/07/05 06:30:53;;;;;;;;;;;;;;;22.36;60.96;97887.28;7371928;19;19954;-71
2023/07/05 06:33:21;;;;;;;;;;;;;;;22.29;59.63;97887.44;7368096;19;19939;-71
2023/07/05 06:35:48;;;;;;;;;;;;;;;22.16;60.56;97905.75;7371566;19;20029;-69
2023/07/05 06:38:14;;;;;;;;;;;;;;;21.73;61.89;97937.53;7366576;19;19915;-69
2023/07/05 06:40:41;;;;;;;;;;;;;;;21.30;62.77;97952.22;7368830;19;19918;-70
2023/07/05 06:43:08;;;;;;;;;;;;;;;20.91;64.54;97962.59;7361901;19;20496;-70
2023/07/05 06:45:35;;;;;;;;;;;;;;;20.61;66.96;97974.22;7368063;19;19926;-69
2023/07/05 06:48:02;;;;;;;;;;;;;;;20.33;67.84;97976.69;7366964;19;19951;-71
2023/07/05 06:50:29;;;;;;;;;;;;;;;20.07;69.33;97970.63;7367224;19;19926;-69
2023/07/05 06:52:55;;;;;;;;;;;;;;;19.54;72.34;97960.50;7369165;19;20467;-73
2023/07/05 06:55:42;;;;;;;;;;;;;;;19.32;73.55;97970.81;7373111;19;20325;-72
2023/07/05 06:58:09;;;;;;;;;;;;;;;18.89;75.59;97981.53;7363451;19;20013;-71
2023/07/05 07:00:36;;;;;;;;;;;;;;;18.55;78.18;97986.28;7363691;19;19938;-72
2023/07/05 07:03:02;;;;;;;;;;;;;;;18.31;78.72;97988.69;7367972;19;20387;-72
2023/07/05 07:05:30;;;;;;;;;;;;;;;18.47;78.67;97991.91;7370207;19;19918;-72
2023/07/05 07:07:57;;;;;;;;;;;;;;;18.42;79.70;97996.03;7367149;19;19921;-70
2023/07/05 07:10:24;;;;;;;;;;;;;;;18.39;80.08;98007.19;7365087;19;19931;-71
2023/07/05 07:12:50;;;;;;;;;;;;;;;18.36;79.36;98009.50;7369282;19;19930;-73
2023/07/05 07:15:17;;;;;;;;;;;;;;;18.30;81.40;98013.84;7367449;19;19918;-72
2023/07/05 07:17:44;;;;;;;;;;;;;;;18.39;79.83;98009.88;7368009;19;19926;-73
2023/07/05 07:20:11;;;;;;;;;;;;;;;18.50;81.17;98000.31;7370338;19;19914;-72
2023/07/05 07:22:38;;;;;;;;;;;;;;;18.53;81.68;98023.19;7367396;19;19923;-70
2023/07/05 07:25:05;;;;;;;;;;;;;;;18.84;80.89;98011.69;7372078;19;19953;-70
2023/07/05 07:27:32;;;;;;;;;;;;;;;19.07;79.96;98014.59;7368908;19;19919;-69
2023/07/05 07:29:59;;;;;;;;;;;;;;;19.34;80.86;98008.16;7371264;19;19914;-69
2023/07/05 07:32:25;;;;;;;;;;;;;;;19.46;81.22;98017.97;7363232;19;19919;-69
2023/07/05 07:34:53;;;;;;;;;;;;;;;19.99;79.54;98021.97;7369183;19;19922;-69
2023/07/05 07:37:19;;;;;;;;;;;;;;;19.96;80.30;98022.41;7365510;19;19925;-69
2023/07/05 07:39:46;;;;;;;;;;;;;;;20.05;79.99;98022.91;7368545;19;19942;-69
2023/07/05 07:42:13;;;;;;;;;;;;;;;20.30;78.51;98025.47;7366132;19;19918;-69
2023/07/05 07:44:40;;;;;;;;;;;;;;;20.33;78.02;98038.50;7364679;19;19926;-69
2023/07/05 07:47:06;;;;;;;;;;;;;;;20.40;78.27;98033.81;7365612;19;19990;-69
2023/07/05 07:49:33;;;;;;;;;;;;;;;20.58;76.47;98036.50;7366182;19;19926;-69
2023/07/05 07:52:00;;;;;;;;;;;;;;;20.49;74.94;98039.72;7368875;19;19919;-70
2023/07/05 07:54:30;;;;;;;;;;;;;;;20.61;74.54;98040.59;7366939;19;20562;-70
2023/07/05 07:56:57;;;;;;;;;;;;;;;20.33;75.93;98044.66;7370327;19;19930;-71
2023/07/05 07:59:24;;;;;;;;;;;;;;;20.10;75.79;98050.75;7367613;19;19919;-71
2023/07/05 08:01:50;;;;;;;;;;;;;;;20.05;75.38;98047.09;7369758;19;20017;-71
2023/07/05 08:04:17;;;;;;;;;;;;;;;19.85;75.56;98050.81;7364874;19;19922;-75
2023/07/05 08:06:45;;;;;;;;;;;;;;;19.56;74.93;98055.00;7362080;19;20001;-73
2023/07/05 08:09:16;;;;;;;;;;;;;;;20.10;74.51;98055.28;7364659;19;19943;-73
2023/07/05 08:11:43;;;;;;;;;;;;;;;20.22;74.60;98055.34;7368537;19;20532;-72
2023/07/05 08:14:10;;;;;;;;;;;;;;;20.23;74.42;98062.38;7364347;19;19923;-73
2023/07/05 08:16:36;;;;;;;;;;;;;;;19.87;73.57;98056.78;7366821;19;19937;-72
2023/07/05 08:19:03;;;;;;;;;;;;;;;19.44;75.00;98052.22;7369388;19;19997;-72
2023/07/05 08:21:30;;;;;;;;;;;;;;;19.43;74.60;98065.84;7361736;19;19922;-72
2023/07/05 08:23:57;;;;;;;;;;;;;;;19.56;73.98;98068.41;7364906;19;19930;-72
2023/07/05 08:26:44;;;;;;;;;;;;;;;19.45;74.44;98074.50;7366115;19;19919;-73
2023/07/05 08:29:12;;;;;;;;;;;;;;;19.72;74.47;98075.94;7365156;19;19947;-70
2023/07/05 08:31:39;;;;;;;;;;;;;;;19.62;73.08;98074.78;7364501;19;19915;-72
2023/07/05 08:34:05;;;;;;;;;;;;;;;19.48;72.27;98085.63;7368282;19;20367;-73
2023/07/05 08:36:36;;;;;;;;;;;;;;;19.25;73.22;98085.41;7365499;19;19922;-71
2023/07/05 08:39:05;;;;;;;;;;;;;;;19.15;72.96;98093.13;7366786;19;19963;-72
2023/07/05 08:41:41;;;;;;;;;;;;;;;19.26;72.70;98097.78;7363051;19;20314;-72
2023/07/05 08:44:21;;;;;;;;;;;;;;;19.14;70.84;98102.19;7364960;19;19993;-72
2023/07/05 08:46:49;;;;;;;;;;;;;;;19.38;71.73;98103.25;7363107;19;19915;-72
2023/07/05 08:49:19;;;;;;;;;;;;;;;19.19;71.38;98113.91;7364666;19;19923;-72
2023/07/05 08:51:46;;;;;;;;;;;;;;;19.34;71.67;98121.63;7366612;19;20449;-72
2023/07/05 08:54:13;;;;;;;;;;;;;;;19.43;70.95;98124.88;7366267;19;19919;-72
2023/07/05 08:56:41;;;;;;;;;;;;;;;19.62;70.96;98134.63;7366274;19;20353;-71
2023/07/05 08:59:09;;;;;;;;;;;;;;;19.56;69.58;98134.69;7366194;19;19968;-72
2023/07/05 09:01:38;;;;;;;;;;;;;;;19.67;69.16;98131.31;7367531;19;19927;-73
2023/07/05 09:04:09;;;;;;;;;;;;;;;19.90;66.06;98136.03;7367559;19;19919;-73
2023/07/05 09:06:45;;;;;;;;;;;;;;;20.13;67.69;98138.91;7366718;19;20010;-71
2023/07/05 09:09:24;;;;;;;;;;;;;;;20.16;66.99;98140.31;7367371;19;19926;-70
2023/07/05 09:12:11;;;;;;;;;;;;;;;20.14;66.17;98129.81;7363789;19;19952;-69
2023/07/05 09:14:57;;;;;;;;;;;;;;;20.30;65.41;98130.25;7366298;19;19926;-71
2023/07/05 09:17:35;;;;;;;;;;;;;;;20.62;65.51;98128.25;7364061;19;19918;-71
2023/07/05 09:20:06;;;;;;;;;;;;;;;21.43;66.49;98124.22;7365752;19;19925;-72
2023/07/05 09:22:33;;;;;;;;;;;;;;;21.69;61.88;98122.13;7371179;19;19926;-70
2023/07/05 09:25:01;;;;;;;;;;;;;;;21.89;61.46;98125.28;7377368;19;19943;-72
2023/07/05 09:27:38;;;;;;;;;;;;;;;22.32;56.98;98116.00;7372903;19;20748;-70
2023/07/05 09:30:09;;;;;;;;;;;;;;;22.34;59.52;98122.00;7373396;19;19998;-71
2023/07/05 09:32:37;;;;;;;;;;;;;;;23.17;56.69;98127.94;7371569;19;19929;-71
2023/07/05 09:35:10;;;;;;;;;;;;;;;22.72;58.57;98131.41;7374658;19;19919;-71
2023/07/05 09:37:37;;;;;;;;;;;;;;;23.05;55.77;98124.47;7371351;19;19929;-69
2023/07/05 09:40:17;;;;;;;;;;;;;;;22.62;57.46;98130.34;7374563;19;19925;-70
2023/07/05 09:42:47;;;;;;;;;;;;;;;22.69;57.78;98131.03;7373350;19;19918;-69
2023/07/05 09:45:14;;;;;;;;;;;;;;;22.88;56.07;98134.34;7371270;19;19918;-70
2023/07/05 09:47:41;;;;;;;;;;;;;;;22.85;56.10;98141.06;7364261;19;20000;-70
2023/07/05 09:50:16;;;;;;;;;;;;;;;23.36;54.45;98136.63;7368426;19;20584;-71
2023/07/05 09:52:44;;;;;;;;;;;;;;;23.27;54.30;98131.84;7369593;19;19923;-70
2023/07/05 09:55:12;;;;;;;;;;;;;;;23.25;54.38;98133.97;7370243;19;19923;-70
2023/07/05 09:57:38;;;;;;;;;;;;;;;23.52;52.85;98137.69;7372368;19;20571;-70
2023/07/05 10:00:26;;;;;;;;;;;;;;;23.50;50.65;98129.00;7375597;19;20265;-69
2023/07/05 10:02:53;;;;;;;;;;;;;;;23.44;53.06;98130.00;7372162;19;19943;-70
2023/07/05 10:05:25;;;;;;;;;;;;;;;23.61;51.91;98122.69;7370276;19;20621;-70
2023/07/05 10:07:53;;;;;;;;;;;;;;;23.28;51.60;98125.41;7369822;19;19918;-69
2023/07/05 10:10:19;;;;;;;;;;;;;;;23.42;51.28;98129.41;7371601;19;19926;-70
2023/07/05 10:12:47;;;;;;;;;;;;;;;23.17;51.81;98125.25;7371513;19;19921;-70
2023/07/05 10:15:20;;;;;;;;;;;;;;;23.83;53.00;98119.31;7373987;19;19923;-70
2023/07/05 10:17:47;;;;;;;;;;;;;;;24.01;52.01;98116.31;7371825;19;19950;-70
2023/07/05 10:20:18;;;;;;;;;;;;;;;23.76;50.74;98129.44;7366146;19;19932;-69
2023/07/05 10:22:45;;;;;;;;;;;;;;;23.72;50.16;98121.00;7369200;19;19926;-69
2023/07/05 10:25:19;;;;;;;;;;;;;;;23.35;46.06;98128.75;7365751;19;19923;-69
2023/07/05 10:27:49;;;;;;;;;;;;;;;23.28;50.86;98126.22;7367037;19;20400;-70
2023/07/05 10:30:19;;;;;;;;;;;;;;;23.44;47.25;98130.00;7372999;19;19919;-69
2023/07/05 10:32:49;;;;;;;;;;;;;;;23.64;43.12;98134.91;7370446;19;19930;-70
2023/07/05 10:35:21;;;;;;;;;;;;;;;24.05;44.17;98132.84;7371320;19;20351;-70
2023/07/05 10:37:48;;;;;;;;;;;;;;;24.02;47.00;98133.34;7369320;19;19919;-69
2023/07/05 10:40:16;;;;;;;;;;;;;;;23.51;44.58;98132.53;7368647;19;19911;-69
2023/07/05 10:42:50;;;;;;;;;;;;;;;23.49;45.08;98123.88;7368421;19;20019;-69
2023/07/05 10:45:17;;;;;;;;;;;;;;;23.65;45.56;98129.25;7368413;19;20011;-69
2023/07/05 10:47:51;;;;;;;;;;;;;;;23.76;45.49;98129.44;7366221;19;19934;-69
2023/07/05 10:50:26;;;;;;;;;;;;;;;23.65;40.86;98129.25;7368489;19;19937;-70
2023/07/05 10:52:55;;;;;;;;;;;;;;;23.85;43.11;98136.06;7364596;19;20237;-69
2023/07/05 10:55:23;;;;;;;;;;;;;;;23.99;39.37;98123.84;7371030;19;19945;-69
2023/07/05 10:58:02;;;;;;;;;;;;;;;24.09;41.09;98134.81;7362848;19;19923;-69
2023/07/05 11:00:37;;;;;;;;;;;;;;;23.78;41.05;98136.25;7368737;19;19918;-69
2023/07/05 11:03:13;;;;;;;;;;;;;;;23.77;41.18;98134.59;7370982;19;19922;-70
2023/07/05 11:05:42;;;;;;;;;;;;;;;23.82;41.77;98133.84;7366769;19;19942;-70
2023/07/05 11:08:16;;;;;;;;;;;;;;;23.62;39.08;98139.75;7364641;19;19923;-69
2023/07/05 11:10:43;;;;;;;;;;;;;;;23.81;41.91;98132.22;7365113;19;19919;-69
2023/07/05 11:13:14;;;;;;;;;;;;;;;23.94;40.53;98136.47;7369596;19;19919;-71
2023/07/05 11:15:41;;;;;;;;;;;;;;;23.61;39.26;98144.31;7368910;19;20685;-69
2023/07/05 11:18:17;;;;;;;;;;;;;;;23.65;37.88;98134.66;7371287;19;19987;-69
2023/07/05 11:20:45;;;;;;;;;;;;;;;23.54;39.10;98151.78;7368454;19;19926;-69
2023/07/05 11:23:13;;;;;;;;;;;;;;;23.43;40.22;98147.25;7365013;19;19922;-69
2023/07/05 11:25:52;;;;;;;;;;;;;;;23.85;38.93;98138.75;7359979;19;19922;-69
2023/07/05 11:28:51;;;;;;;;;;;;;;;23.78;35.63;98136.25;7368911;19;19922;-69
2023/07/05 11:31:27;;;;;;;;;;;;;;;23.71;35.45;98142.84;7364621;19;19931;-70
2023/07/05 11:34:12;;;;;;;;;;;;;;;23.85;34.55;98144.16;7371296;19;19929;-71
2023/07/05 11:36:39;;;;;;;;;;;;;;;23.78;33.51;98130.84;7371207;19;19933;-70
2023/07/05 11:39:08;;;;;;;;;;;;;;;23.96;35.03;98142.44;7369749;19;20338;-69
2023/07/05 11:41:38;;;;;;;;;;;;;;;24.17;32.31;98143.53;7363556;19;20461;-69
2023/07/05 11:44:20;;;;;;;;;;;;;;;24.03;35.97;98141.19;7365643;19;19926;-69
2023/07/05 11:46:50;;;;;;;;;;;;;;;24.08;36.64;98143.97;7365345;19;19919;-71
2023/07/05 11:49:20;;;;;;;;;;;;;;;24.14;35.10;98141.34;7367670;19;19923;-69
2023/07/05 11:51:51;;;;;;;;;;;;;;;24.40;36.57;98140.59;7370548;19;19922;-69
2023/07/05 11:54:18;;;;;;;;;;;;;;;24.34;36.90;98152.44;7370268;19;20690;-70
2023/07/05 11:56:45;;;;;;;;;;;;;;;24.46;35.84;98155.88;7368288;19;19919;-69
2023/07/05 11:59:12;;;;;;;;;;;;;;;23.84;34.34;98164.97;7367828;19;20332;-70
2023/07/05 12:01:39;;;;;;;;;;;;;;;23.99;35.52;98156.28;7363646;19;19922;-69
2023/07/05 12:04:06;;;;;;;;;;;;;;;24.32;33.76;98159.97;7370266;19;20231;-69
2023/07/05 12:06:38;;;;;;;;;;;;;;;24.50;34.72;98157.00;7367634;19;19922;-69
2023/07/05 12:09:05;;;;;;;;;;;;;;;24.62;34.22;98148.78;7367402;19;20300;-69
2023/07/05 12:11:37;;;;;;;;;;;;;;;24.85;35.63;98146.84;7368326;19;19929;-69
2023/07/05 12:14:06;;;;;;;;;;;;;;;24.52;35.85;98154.88;7368852;19;19926;-68
2023/07/05 12:16:32;;;;;;;;;;;;;;;24.67;35.44;98146.13;7360349;19;19919;-69
2023/07/05 12:19:00;;;;;;;;;;;;;;;24.59;35.45;98143.84;7364442;19;19914;-69
2023/07/05 12:21:26;;;;;;;;;;;;;;;24.36;34.25;98154.91;7364046;19;19956;-69
2023/07/05 12:23:56;;;;;;;;;;;;;;;24.54;33.37;98146.50;7362658;19;20233;-69
2023/07/05 12:26:34;;;;;;;;;;;;;;;24.27;36.29;98152.59;7367071;19;19926;-72
2023/07/05 12:29:03;;;;;;;;;;;;;;;23.98;35.77;98141.13;7363838;19;20019;-71
2023/07/05 12:31:30;;;;;;;;;;;;;;;24.32;36.07;98154.56;7367607;19;19918;-73
2023/07/05 12:34:00;;;;;;;;;;;;;;;23.66;36.29;98155.19;7369199;19;19934;-72
2023/07/05 12:36:27;;;;;;;;;;;;;;;24.04;35.66;98153.66;7367617;19;19934;-69
2023/07/05 12:39:07;;;;;;;;;;;;;;;24.07;35.34;98149.63;7367521;19;19907;-69
2023/07/05 12:41:33;;;;;;;;;;;;;;;24.00;35.64;98151.69;7365787;19;20008;-70
2023/07/05 12:44:01;;;;;;;;;;;;;;;24.02;33.31;98144.97;7370645;19;19918;-70
2023/07/05 12:46:28;;;;;;;;;;;;;;;23.97;34.63;98153.00;7367077;19;19914;-69
2023/07/05 12:48:55;;;;;;;;;;;;;;;24.09;34.31;98161.84;7370400;19;20043;-69
2023/07/05 12:51:23;;;;;;;;;;;;;;;23.83;34.34;98149.03;7366537;19;19926;-69
2023/07/05 12:53:51;;;;;;;;;;;;;;;24.16;34.47;98140.03;7367060;19;22331;-72
2023/07/05 12:56:22;;;;;;;;;;;;;;;24.12;34.50;98138.06;7370996;19;19919;-69